logo dgac
Viernes 01 de Julio del 2022
Buscar por aerodromo o helipuerto
Ingrese nombre de aeródromo, localidad o designador OACI:
TAF: TAF SCAT 011020Z 0112/0212 17004KT 9999 OVC017 TX17/0119Z TN08/0210Z BECMG 0115/0117 22010KT CAVOK BECMG 0200/0202 18004KT
TAF del 01/07/2022 a las 10:20 UTC
Para mayor información visite www.meteochile.cl
Período de validez: desde el 01 a las 12:00 UTC hasta el 02 a las 12:00 UTC
Viento: dirección 170 grados, velocidad 4 nudos
Visibilidad: 10 km o más
Nubes: Cubierto a 1700 pies sobre el nivel del aeródromo
Temperatura máxima: 17ºC el 01 a las 19:00 UTC
Temperatura mínima: 8ºC el 02 a las 10:00 UTC
Se espera un cambio entre las 15:00 UTC del 01 y las 17:00 UTC del 01, :
Viento: dirección 220 grados, velocidad 10 nudos
Visibilidad: 10 km o más,
    sin nubes bajo los 5.000 pies o bajo del MSA (Mínimo de Seguridad del Aeródromo),
    sin cumulonimbus, y sin fenómenos de tiempo significativo en el aeródromo o alrededores
Se espera un cambio entre las 00:00 UTC del 02 y las 02:00 UTC del 02, :
Viento: dirección 180 grados, velocidad 4 nudos